Time;durP1;ratioP1;P1;durP2;ratioP2;P2;SDS_P1;SDS_P2;PMS_P1;PMS_P2;Temp;Humidity;BMP_temperature;BMP_pressure;BME280_temperature;BME280_humidity;BME280_pressure;Samples;Min_cycle;Max_cycle;Signal;HPM_P1;HPM_P2
2022/05/08 00:01:46;;;;;;;865.87;771.93;;;10.70;99.90;;;;;;4982636;28;20455;-81
2022/05/08 00:04:29;;;;;;;825.43;735.07;;;10.70;99.90;;;;;;4983583;28;20466;-81
2022/05/08 00:07:37;;;;;;;;;;;;;;;;;;;;;
2022/05/08 00:10:31;;;;;;;864.73;772.20;;;10.70;99.90;;;;;;4981972;28;20451;-81
2022/05/08 00:13:15;;;;;;;;;;;;;;;;;;;;;
2022/05/08 00:19:41;;;;;;;867.23;774.27;;;10.80;99.90;;;;;;4980235;28;20529;-84
2022/05/08 00:22:49;;;;;;;;;;;;;;;;;;;;;
2022/05/08 00:25:26;;;;;;;;;;;;;;;;;;;;;
2022/05/08 00:28:14;;;;;;;886.07;791.23;;;10.80;99.90;;;;;;4965572;28;20877;-84
2022/05/08 00:31:12;;;;;;;886.60;791.27;;;10.90;99.90;;;;;;4983203;28;21023;-81
2022/05/08 00:33:46;;;;;;;882.90;788.43;;;11.00;99.90;;;;;;4982667;28;20830;-82
2022/05/08 00:39:24;;;;;;;;;;;;;;;;;;;;;
2022/05/08 00:45:38;;;;;;;880.40;784.60;;;11.00;99.90;;;;;;4922182;29;20474;-81
2022/05/08 00:51:40;;;;;;;868.73;773.73;;;11.30;99.90;;;;;;4911019;28;20530;-81
2022/05/08 00:54:09;;;;;;;871.13;776.03;;;11.30;99.90;;;;;;4966101;28;20455;-81
2022/05/08 00:56:42;;;;;;;881.40;778.30;;;11.50;99.90;;;;;;4982155;28;20486;-81
2022/05/08 01:02:46;;;;;;;864.97;769.47;;;11.70;99.90;;;;;;4959922;29;20463;-81
2022/05/08 01:05:25;;;;;;;862.47;767.87;;;11.80;99.90;;;;;;4931570;28;20490;-82
2022/05/08 01:07:59;;;;;;;850.87;757.67;;;11.90;99.90;;;;;;4982025;28;20450;-80
2022/05/08 01:10:35;;;;;;;856.47;761.87;;;12.00;99.90;;;;;;4980908;28;20447;-82
2022/05/08 01:13:26;;;;;;;878.27;772.80;;;12.20;99.90;;;;;;4982308;28;20490;-82
2022/05/08 01:16:07;;;;;;;884.17;761.70;;;12.20;99.90;;;;;;4981320;28;20477;-81
2022/05/08 01:19:11;;;;;;;847.57;753.17;;;12.30;99.90;;;;;;4980616;28;20553;-81
2022/05/08 01:22:11;;;;;;;864.27;758.50;;;12.40;99.90;;;;;;4981042;28;20446;-81
2022/05/08 01:30:35;;;;;;;801.60;720.03;;;12.70;99.90;;;;;;4961235;28;20834;-81
2022/05/08 01:36:18;;;;;;;804.80;723.40;;;12.90;99.90;;;;;;4960102;28;20472;-80
2022/05/08 01:39:19;;;;;;;787.93;711.67;;;13.00;99.90;;;;;;4974920;28;20459;-81
2022/05/08 01:41:59;;;;;;;767.17;697.87;;;13.00;99.90;;;;;;4982572;28;20827;-81
2022/05/08 01:44:32;;;;;;;771.53;703.00;;;13.10;99.90;;;;;;4981710;28;20967;-81
2022/05/08 01:50:14;;;;;;;736.37;680.90;;;13.00;99.90;;;;;;4981193;28;20446;-83
2022/05/08 01:52:42;;;;;;;697.27;652.77;;;13.00;99.90;;;;;;4981526;28;20538;-80
2022/05/08 01:55:16;;;;;;;718.57;671.97;;;13.00;99.90;;;;;;4980095;28;20527;-81
2022/05/08 01:57:45;;;;;;;668.97;630.67;;;12.90;99.90;;;;;;4982114;28;20475;-81
2022/05/08 02:00:23;;;;;;;663.97;627.30;;;12.90;99.90;;;;;;4981278;28;20944;-83
2022/05/08 02:02:55;;;;;;;668.47;631.10;;;12.80;99.90;;;;;;4982298;28;20455;-80
2022/05/08 02:05:28;;;;;;;679.23;641.73;;;12.80;99.90;;;;;;4981140;28;20463;-80
2022/05/08 02:11:07;;;;;;;623.63;594.67;;;12.60;99.90;;;;;;4980483;28;20465;-80
2022/05/08 02:13:34;;;;;;;563.87;540.07;;;12.70;99.90;;;;;;4981290;28;20447;-80
2022/05/08 02:16:02;;;;;;;666.70;631.43;;;12.60;99.90;;;;;;4981450;28;20471;-80
2022/05/08 02:18:31;;;;;;;653.53;622.07;;;12.60;99.90;;;;;;4961801;28;20459;-82
2022/05/08 02:20:59;;;;;;;628.83;599.83;;;12.50;99.90;;;;;;4962378;28;20464;-80
2022/05/08 02:23:26;;;;;;;641.93;613.07;;;12.50;99.90;;;;;;4980904;28;20505;-80
2022/05/08 02:25:53;;;;;;;610.30;584.63;;;12.40;99.90;;;;;;4980909;28;20479;-80
2022/05/08 02:28:21;;;;;;;628.87;601.87;;;12.40;99.90;;;;;;4979167;28;20451;-81
2022/05/08 02:30:47;;;;;;;575.60;553.80;;;12.20;99.90;;;;;;4981268;28;20840;-83
2022/05/08 02:33:14;;;;;;;586.30;564.00;;;12.20;99.90;;;;;;4980147;28;20462;-80
2022/05/08 02:35:41;;;;;;;489.60;472.90;;;12.20;99.90;;;;;;4979904;28;20562;-80
2022/05/08 02:38:10;;;;;;;555.73;535.37;;;12.10;99.90;;;;;;4979255;28;21010;-82
2022/05/08 02:40:37;;;;;;;524.83;506.17;;;12.20;99.90;;;;;;4981051;28;20494;-80
2022/05/08 02:43:04;;;;;;;409.10;396.57;;;12.10;99.90;;;;;;4983537;28;20458;-80
2022/05/08 02:45:32;;;;;;;441.10;426.90;;;12.10;99.90;;;;;;4983580;28;20479;-80
2022/05/08 02:47:59;;;;;;;563.23;542.43;;;12.00;99.90;;;;;;4978055;28;20455;-81
2022/05/08 02:50:26;;;;;;;543.30;523.43;;;12.10;99.90;;;;;;4964855;28;20458;-81
2022/05/08 02:53:13;;;;;;;;;;;;;;;;;;;;;
2022/05/08 02:58:41;;;;;;;535.57;516.40;;;11.90;99.90;;;;;;4984187;28;20481;-81
2022/05/08 03:01:17;;;;;;;515.80;497.50;;;11.90;99.90;;;;;;4985017;28;20966;-80
2022/05/08 03:03:47;;;;;;;472.37;456.37;;;11.80;99.90;;;;;;4984867;28;20462;-80
2022/05/08 03:06:24;;;;;;;448.40;433.60;;;11.80;99.90;;;;;;4984763;28;20578;-81
2022/05/08 03:09:20;;;;;;;397.90;385.07;;;11.80;99.90;;;;;;4983878;28;20447;-80
2022/05/08 03:11:53;;;;;;;449.10;433.97;;;11.70;99.90;;;;;;4984433;28;20482;-80
2022/05/08 03:14:42;;;;;;;418.97;404.77;;;11.70;99.90;;;;;;4986000;28;20569;-82
2022/05/08 03:17:16;;;;;;;351.57;340.10;;;11.70;99.90;;;;;;4961228;28;20515;-80
2022/05/08 03:19:47;;;;;;;460.37;443.80;;;11.60;99.90;;;;;;4967552;28;20522;-81
2022/05/08 03:22:19;;;;;;;443.17;428.20;;;11.60;99.90;;;;;;4985875;28;20454;-80
2022/05/08 03:24:47;;;;;;;478.97;462.10;;;11.60;99.90;;;;;;4985636;28;20463;-80
2022/05/08 03:27:18;;;;;;;356.60;345.30;;;11.60;99.90;;;;;;4985157;28;20502;-80
2022/05/08 03:29:46;;;;;;;414.47;400.63;;;11.60;99.90;;;;;;4983264;28;20514;-83
2022/05/08 03:32:15;;;;;;;470.03;453.77;;;11.50;99.90;;;;;;4984818;28;20501;-81
2022/05/08 03:34:41;;;;;;;584.73;561.33;;;11.40;99.90;;;;;;4983584;28;20553;-81
2022/05/08 03:37:08;;;;;;;439.60;424.83;;;11.40;99.90;;;;;;4983816;28;20515;-81
2022/05/08 03:39:35;;;;;;;521.57;502.93;;;11.30;99.90;;;;;;4982820;28;20451;-81
2022/05/08 03:42:01;;;;;;;522.40;503.40;;;11.30;99.90;;;;;;4983202;28;20459;-81
2022/05/08 03:44:28;;;;;;;509.53;491.03;;;11.30;99.90;;;;;;4985197;28;20455;-80
2022/05/08 03:46:55;;;;;;;504.60;486.33;;;11.20;99.90;;;;;;4983321;28;20475;-80
2022/05/08 03:49:24;;;;;;;535.57;515.67;;;11.20;99.90;;;;;;4983313;28;20467;-80
2022/05/08 03:51:51;;;;;;;557.67;536.13;;;11.20;99.90;;;;;;4984890;28;20454;-81
2022/05/08 03:54:18;;;;;;;548.03;527.13;;;11.10;99.90;;;;;;4984163;28;20541;-79
2022/05/08 03:56:46;;;;;;;537.83;517.40;;;11.00;99.90;;;;;;4980498;28;20475;-80
2022/05/08 03:59:13;;;;;;;605.53;581.10;;;11.00;99.90;;;;;;4980550;28;20455;-80
2022/05/08 04:01:42;;;;;;;567.13;545.37;;;11.00;99.90;;;;;;4981364;28;20454;-80
2022/05/08 04:04:09;;;;;;;536.07;515.37;;;11.00;99.90;;;;;;4984044;28;20991;-81
2022/05/08 04:06:37;;;;;;;498.93;480.67;;;11.00;99.90;;;;;;4982384;28;20494;-83
2022/05/08 04:09:04;;;;;;;530.17;510.07;;;11.00;99.90;;;;;;4982641;28;20894;-82
2022/05/08 04:11:31;;;;;;;545.63;524.77;;;11.00;99.90;;;;;;4983050;28;20459;-80
2022/05/08 04:13:58;;;;;;;522.77;503.23;;;11.00;99.90;;;;;;4965275;28;20522;-83
2022/05/08 04:16:26;;;;;;;536.83;516.50;;;11.00;99.90;;;;;;4964976;28;20484;-81
2022/05/08 04:18:55;;;;;;;529.57;509.47;;;11.00;99.90;;;;;;4983171;28;20577;-80
2022/05/08 04:21:22;;;;;;;590.97;567.47;;;11.00;99.90;;;;;;4984568;28;20455;-81
2022/05/08 04:26:38;;;;;;;514.00;494.67;;;11.00;99.90;;;;;;4979134;28;20521;-82
2022/05/08 04:29:05;;;;;;;632.50;606.10;;;11.00;99.90;;;;;;4983226;28;20459;-82
2022/05/08 04:31:32;;;;;;;654.57;627.43;;;11.00;99.90;;;;;;4984489;28;20461;-81
2022/05/08 04:34:04;;;;;;;565.30;543.17;;;11.00;99.90;;;;;;4981963;28;20457;-82
2022/05/08 04:36:34;;;;;;;590.03;566.13;;;11.00;99.90;;;;;;4963210;28;20920;-81
2022/05/08 04:39:03;;;;;;;552.43;531.00;;;11.00;99.90;;;;;;4964598;28;20567;-82
2022/05/08 04:41:32;;;;;;;559.47;538.07;;;11.10;99.90;;;;;;4972966;28;20515;-82
2022/05/08 04:44:01;;;;;;;536.50;515.93;;;11.20;99.90;;;;;;4982139;28;20539;-81
2022/05/08 04:46:29;;;;;;;582.43;558.83;;;11.10;99.90;;;;;;4984600;28;20503;-81
2022/05/08 04:49:02;;;;;;;559.30;537.63;;;11.20;99.90;;;;;;4982984;28;20447;-81
2022/05/08 04:51:29;;;;;;;448.57;433.27;;;11.30;99.90;;;;;;4985258;28;20459;-81
2022/05/08 04:53:57;;;;;;;504.70;484.67;;;11.30;99.90;;;;;;4984375;28;20466;-82
2022/05/08 04:56:37;;;;;;;451.43;435.27;;;11.30;99.90;;;;;;4984584;28;20494;-85
2022/05/08 04:59:04;;;;;;;487.87;469.43;;;11.40;99.90;;;;;;4983405;28;20531;-82
2022/05/08 05:01:34;;;;;;;451.33;435.23;;;11.30;99.90;;;;;;4983913;28;20887;-82
2022/05/08 05:04:09;;;;;;;415.43;400.57;;;11.30;99.90;;;;;;4984115;28;20459;-82
2022/05/08 05:06:44;;;;;;;456.47;439.73;;;11.30;99.90;;;;;;4982753;28;20921;-81
2022/05/08 05:09:11;;;;;;;389.43;375.43;;;11.30;99.90;;;;;;4983780;28;20457;-81
2022/05/08 05:11:41;;;;;;;333.00;321.53;;;11.30;99.90;;;;;;4983846;28;20547;-81
2022/05/08 05:14:20;;;;;;;351.10;338.23;;;11.30;99.90;;;;;;4980061;28;20456;-81
2022/05/08 05:16:47;;;;;;;376.37;362.17;;;11.30;99.90;;;;;;4960377;28;20570;-82
2022/05/08 05:19:14;;;;;;;345.40;332.80;;;11.20;99.90;;;;;;4972265;28;20471;-82
2022/05/08 05:21:41;;;;;;;277.30;267.70;;;11.20;99.90;;;;;;4985632;28;20538;-81
2022/05/08 05:24:09;;;;;;;263.90;254.20;;;11.20;99.90;;;;;;4985949;28;20451;-83
2022/05/08 05:26:36;;;;;;;228.83;219.73;;;11.20;99.90;;;;;;4985576;28;20467;-82
2022/05/08 05:29:04;;;;;;;181.80;174.13;;;11.20;99.90;;;;;;4984664;28;20519;-81
2022/05/08 05:31:33;;;;;;;248.70;238.87;;;11.20;99.90;;;;;;4982464;28;20454;-84
2022/05/08 05:34:00;;;;;;;227.03;218.00;;;11.10;99.90;;;;;;4983473;28;20455;-82
2022/05/08 05:36:27;;;;;;;163.30;155.80;;;11.20;99.90;;;;;;5009370;23;20494;-83
2022/05/08 05:38:53;;;;;;;172.17;164.87;;;11.10;99.90;;;;;;4992967;28;20477;-83
2022/05/08 05:41:20;;;;;;;94.90;90.43;;;11.20;99.90;;;;;;4993120;28;20454;-83
2022/05/08 05:43:47;;;;;;;134.13;128.13;;;11.10;99.90;;;;;;4996061;28;20465;-82
2022/05/08 05:48:59;;;;;;;81.90;77.43;;;11.20;99.90;;;;;;4995299;28;20934;-83
2022/05/08 05:51:26;;;;;;;123.23;117.43;;;11.30;99.90;;;;;;4999447;28;20843;-83
2022/05/08 05:53:53;;;;;;;58.53;54.43;;;11.40;99.90;;;;;;5000040;28;20461;-83
2022/05/08 05:56:19;;;;;;;65.50;61.73;;;11.30;99.90;;;;;;5001237;28;20480;-84
2022/05/08 05:58:46;;;;;;;69.93;65.53;;;11.40;99.90;;;;;;4999274;28;20470;-84
2022/05/08 06:01:17;;;;;;;58.07;53.77;;;11.50;99.90;;;;;;5000379;28;20482;-85
2022/05/08 06:03:46;;;;;;;60.53;56.00;;;11.40;99.90;;;;;;5000289;28;21074;-84
2022/05/08 06:06:14;;;;;;;46.60;43.17;;;11.40;99.90;;;;;;4995805;28;20472;-85
2022/05/08 06:08:41;;;;;;;32.20;29.50;;;11.40;99.90;;;;;;4995142;28;20485;-83
2022/05/08 06:11:07;;;;;;;35.47;32.10;;;11.40;99.90;;;;;;4994593;28;20461;-84
2022/05/08 06:13:34;;;;;;;32.37;27.87;;;11.40;99.90;;;;;;4996163;28;20462;-82
2022/05/08 06:16:01;;;;;;;30.77;27.63;;;11.40;99.90;;;;;;4994684;28;20482;-83
2022/05/08 06:18:29;;;;;;;24.37;16.80;;;11.40;99.90;;;;;;4997534;28;21221;-83
2022/05/08 06:20:56;;;;;;;17.13;14.97;;;11.30;99.90;;;;;;4999708;28;20453;-84
2022/05/08 06:23:22;;;;;;;20.03;14.23;;;11.40;99.90;;;;;;5000308;28;20457;-85
2022/05/08 06:25:49;;;;;;;24.73;16.10;;;11.40;99.90;;;;;;4999114;28;20461;-84
2022/05/08 06:28:19;;;;;;;20.43;12.97;;;11.40;99.90;;;;;;4998485;28;20454;-82
2022/05/08 06:30:46;;;;;;;15.40;8.70;;;11.40;99.90;;;;;;4999066;28;20544;-83
2022/05/08 06:33:13;;;;;;;29.90;13.40;;;11.40;99.90;;;;;;4998401;28;20457;-84
2022/05/08 06:35:41;;;;;;;19.33;11.47;;;11.50;99.90;;;;;;4997932;28;20829;-82
2022/05/08 06:38:10;;;;;;;19.13;11.80;;;11.60;99.90;;;;;;4996811;28;20481;-80
2022/05/08 06:40:37;;;;;;;22.67;13.00;;;11.60;99.90;;;;;;4998153;28;20537;-83
2022/05/08 06:43:04;;;;;;;17.80;9.57;;;11.70;99.90;;;;;;4996843;28;20460;-83
2022/05/08 06:45:30;;;;;;;17.80;10.77;;;12.10;98.50;;;;;;4997494;28;20454;-83
2022/05/08 06:47:57;;;;;;;16.73;10.00;;;12.40;98.40;;;;;;4997795;28;20473;-83
2022/05/08 06:50:24;;;;;;;22.50;10.70;;;12.70;96.30;;;;;;4996984;28;20450;-83
2022/05/08 06:52:52;;;;;;;16.20;7.90;;;12.90;92.20;;;;;;4997675;28;20833;-83
2022/05/08 06:55:20;;;;;;;15.90;8.90;;;12.90;90.50;;;;;;4998968;28;20450;-83
2022/05/08 06:57:47;;;;;;;13.13;6.03;;;13.10;90.30;;;;;;4997948;28;21076;-82
2022/05/08 07:02:58;;;;;;;16.23;8.67;;;13.30;87.70;;;;;;5002045;28;20462;-82
2022/05/08 07:05:25;;;;;;;14.13;6.13;;;13.20;85.60;;;;;;5000562;28;20455;-82
2022/05/08 07:07:57;;;;;;;15.73;6.30;;;13.20;81.30;;;;;;5000485;28;20942;-82
2022/05/08 07:10:26;;;;;;;14.60;6.40;;;13.50;81.90;;;;;;5000949;28;20450;-82
2022/05/08 07:12:55;;;;;;;19.85;6.95;;;13.50;80.10;;;;;;5001082;28;20487;-82
2022/05/08 07:15:22;;;;;;;14.10;7.07;;;13.70;77.40;;;;;;4995741;28;20223;-82
2022/05/08 07:17:49;;;;;;;10.80;4.23;;;14.10;78.60;;;;;;4996147;28;20489;-82
2022/05/08 07:20:16;;;;;;;11.20;4.60;;;13.60;74.50;;;;;;4995035;28;20470;-82
2022/05/08 07:22:42;;;;;;;21.40;7.07;;;13.50;77.00;;;;;;4996097;28;20458;-82
2022/05/08 07:25:12;;;;;;;19.73;6.63;;;13.20;78.90;;;;;;4995934;28;20462;-82
2022/05/08 07:27:39;;;;;;;29.67;5.00;;;13.40;80.10;;;;;;4994484;28;20914;-82
2022/05/08 07:30:07;;;;;;;10.40;5.20;;;13.30;78.60;;;;;;4993974;28;20461;-82
2022/05/08 07:32:35;;;;;;;28.50;9.03;;;13.40;80.90;;;;;;4995462;28;20465;-82
2022/05/08 07:37:46;;;;;;;14.17;4.83;;;13.90;74.00;;;;;;4996103;28;20472;-82
2022/05/08 07:40:14;;;;;;;13.00;6.40;;;13.90;73.60;;;;;;4994856;28;20462;-82
2022/05/08 07:42:41;;;;;;;16.77;5.50;;;13.90;73.20;;;;;;4996132;28;20454;-83
2022/05/08 07:45:08;;;;;;;11.80;4.60;;;14.20;69.50;;;;;;4997704;28;20839;-83
2022/05/08 07:47:35;;;;;;;16.43;5.33;;;14.20;69.80;;;;;;4996128;28;20484;-82
2022/05/08 07:50:02;;;;;;;15.97;5.57;;;14.10;70.50;;;;;;4994741;28;20454;-82
2022/05/08 07:52:28;;;;;;;12.90;5.63;;;14.10;67.60;;;;;;4995549;28;20464;-82
2022/05/08 07:54:55;;;;;;;8.63;5.10;;;13.80;67.90;;;;;;4995120;28;20458;-82
2022/05/08 07:57:23;;;;;;;13.60;4.60;;;14.00;70.70;;;;;;4995087;28;20467;-82
2022/05/08 07:59:50;;;;;;;13.50;5.20;;;14.40;70.90;;;;;;4994635;28;20479;-82
2022/05/08 08:02:17;;;;;;;15.13;4.20;;;15.00;68.90;;;;;;4995205;28;20466;-82
2022/05/08 08:04:43;;;;;;;12.60;4.67;;;14.40;65.00;;;;;;4994980;28;20481;-82
2022/05/08 08:07:10;;;;;;;20.60;6.00;;;14.50;67.50;;;;;;4995231;28;20479;-82
2022/05/08 08:09:37;;;;;;;17.73;5.47;;;14.90;67.00;;;;;;4994293;28;20453;-82
2022/05/08 08:12:04;;;;;;;21.50;4.33;;;14.50;65.10;;;;;;4994797;28;20461;-82
2022/05/08 08:14:32;;;;;;;19.13;4.57;;;14.90;62.30;;;;;;4994594;28;20456;-82
2022/05/08 08:16:59;;;;;;;16.97;4.53;;;14.60;64.10;;;;;;4994190;28;20480;-82
2022/05/08 08:19:26;;;;;;;13.30;3.50;;;14.90;63.50;;;;;;4994103;28;20998;-82
2022/05/08 08:21:53;;;;;;;8.77;3.13;;;14.70;63.60;;;;;;4994802;28;20462;-82
2022/05/08 08:24:19;;;;;;;11.80;3.20;;;14.80;61.40;;;;;;4994874;28;20460;-82
2022/05/08 08:26:46;;;;;;;6.93;2.13;;;14.90;60.50;;;;;;4994228;28;20487;-81
2022/05/08 08:29:14;;;;;;;15.10;4.07;;;14.70;59.60;;;;;;4993135;28;20460;-82
2022/05/08 08:31:42;;;;;;;12.20;4.33;;;14.60;59.50;;;;;;4994760;28;20456;-82
2022/05/08 08:34:08;;;;;;;13.67;4.87;;;14.50;59.70;;;;;;4994569;28;20483;-82
2022/05/08 08:36:36;;;;;;;14.70;4.50;;;14.80;60.90;;;;;;4994420;28;20489;-82
2022/05/08 08:39:02;;;;;;;13.60;4.60;;;15.20;60.10;;;;;;4993818;28;20840;-80
2022/05/08 08:41:35;;;;;;;11.40;3.60;;;15.50;58.50;;;;;;4992977;28;20460;-81
2022/05/08 08:49:43;;;;;;;18.57;5.20;;;15.40;54.20;;;;;;4994060;28;21087;-81
2022/05/08 08:52:11;;;;;;;15.60;4.87;;;16.00;54.50;;;;;;4995455;28;20463;-81
2022/05/08 08:54:38;;;;;;;7.50;2.23;;;16.50;49.40;;;;;;4995027;28;20460;-81
2022/05/08 08:57:05;;;;;;;11.10;4.03;;;16.80;42.00;;;;;;4995062;28;20467;-82
2022/05/08 08:59:31;;;;;;;10.70;3.50;;;17.10;43.30;;;;;;4991821;28;20235;-83
2022/05/08 09:02:00;;;;;;;16.33;4.10;;;17.10;38.00;;;;;;4995075;28;20465;-83
2022/05/08 09:04:26;;;;;;;14.30;5.13;;;16.50;37.20;;;;;;4993935;28;20495;-83
2022/05/08 09:06:53;;;;;;;8.77;3.37;;;16.20;40.80;;;;;;4993732;28;20480;-82
2022/05/08 09:09:24;;;;;;;15.20;3.50;;;16.20;38.60;;;;;;4992965;28;20454;-83
2022/05/08 09:11:53;;;;;;;7.60;3.47;;;16.50;41.10;;;;;;4993419;28;20832;-83
2022/05/08 09:14:33;;;;;;;14.67;3.50;;;16.90;40.40;;;;;;4993863;28;20475;-83
2022/05/08 09:17:03;;;;;;;9.00;3.30;;;16.90;37.00;;;;;;4993555;28;20999;-83
2022/05/08 09:19:34;;;;;;;11.60;4.07;;;16.70;36.60;;;;;;4993102;28;20474;-83
2022/05/08 09:22:03;;;;;;;9.60;3.60;;;17.10;33.30;;;;;;4993569;28;20464;-83
2022/05/08 09:24:30;;;;;;;10.70;3.17;;;17.10;32.60;;;;;;4993331;28;20462;-83
2022/05/08 09:27:10;;;;;;;10.10;3.37;;;17.20;32.70;;;;;;4993818;28;20482;-82
2022/05/08 09:29:36;;;;;;;9.07;4.07;;;17.40;30.30;;;;;;4992687;28;20460;-83
2022/05/08 09:32:06;;;;;;;10.67;3.93;;;17.40;28.40;;;;;;4993814;28;20458;-83
2022/05/08 09:34:54;;;;;;;8.23;2.80;;;17.60;29.20;;;;;;4993442;28;20454;-83
2022/05/08 09:37:21;;;;;;;11.37;2.50;;;17.60;26.50;;;;;;4992843;28;20480;-83
2022/05/08 09:39:48;;;;;;;11.10;2.90;;;17.90;28.40;;;;;;4993272;28;20856;-83
2022/05/08 09:42:36;;;;;;;8.07;3.13;;;17.80;27.90;;;;;;4993345;28;20460;-83
2022/05/08 09:45:08;;;;;;;9.80;3.50;;;18.20;26.70;;;;;;4993063;28;20463;-83
2022/05/08 09:47:43;;;;;;;11.63;3.47;;;18.10;26.90;;;;;;4993161;28;20996;-83
2022/05/08 09:50:11;;;;;;;10.10;3.80;;;18.10;25.70;;;;;;4992250;28;20449;-83
2022/05/08 09:52:40;;;;;;;8.10;2.83;;;18.40;25.90;;;;;;4997127;28;20880;-83
2022/05/08 09:55:08;;;;;;;12.47;3.20;;;18.20;25.70;;;;;;4999472;28;20454;-83
2022/05/08 09:57:35;;;;;;;7.63;2.63;;;17.90;23.50;;;;;;5000218;28;20481;-84
2022/05/08 10:00:02;;;;;;;14.87;4.23;;;18.50;25.90;;;;;;5006473;28;21004;-83
2022/05/08 10:02:30;;;;;;;11.90;2.00;;;18.60;22.80;;;;;;5005965;28;20454;-83
2022/05/08 10:04:58;;;;;;;10.10;2.87;;;18.20;23.40;;;;;;4999535;28;20462;-83
2022/05/08 10:07:25;;;;;;;10.73;3.90;;;18.60;24.70;;;;;;4999684;28;20478;-83
2022/05/08 10:15:36;;;;;;;13.03;4.00;;;19.20;20.30;;;;;;4999568;28;20516;-83
2022/05/08 10:18:26;;;;;;;13.80;4.07;;;18.80;18.80;;;;;;4999261;28;20961;-83
2022/05/08 10:21:02;;;;;;;11.13;3.40;;;19.80;20.70;;;;;;4999488;28;21041;-83
2022/05/08 10:23:35;;;;;;;13.90;4.10;;;20.20;17.40;;;;;;4999291;28;20456;-83
2022/05/08 10:26:16;;;;;;;11.50;3.80;;;20.80;16.60;;;;;;5002740;28;20481;-83
2022/05/08 10:29:12;;;;;;;10.30;5.03;;;19.90;15.20;;;;;;5004842;28;20484;-85
2022/05/08 10:31:44;;;;;;;6.80;1.93;;;20.10;17.10;;;;;;5005428;28;20456;-84
2022/05/08 10:34:12;;;;;;;5.47;2.10;;;20.70;10.70;;;;;;5006706;28;20478;-84
2022/05/08 10:36:40;;;;;;;8.90;2.93;;;21.00;9.80;;;;;;5005751;28;20537;-85
2022/05/08 10:39:36;;;;;;;10.87;2.60;;;21.20;5.40;;;;;;5005565;28;20480;-85
2022/05/08 10:42:03;;;;;;;8.60;2.50;;;21.50;2.30;;;;;;5002748;28;20547;-84
2022/05/08 10:44:40;;;;;;;12.40;2.37;;;21.80;1.00;;;;;;5005638;28;20456;-84
2022/05/08 10:47:42;;;;;;;10.07;2.23;;;22.00;1.00;;;;;;5005766;28;20509;-84
2022/05/08 10:50:10;;;;;;;8.20;2.10;;;22.20;2.40;;;;;;4997705;28;20456;-84
2022/05/08 10:52:41;;;;;;;6.40;2.10;;;21.80;1.00;;;;;;4999937;28;20479;-84
2022/05/08 10:55:12;;;;;;;10.93;2.10;;;21.00;1.00;;;;;;4999395;28;20480;-83
2022/05/08 10:57:39;;;;;;;11.43;1.80;;;21.30;1.00;;;;;;4998103;28;20925;-83
2022/05/08 11:00:08;;;;;;;8.37;2.10;;;20.70;1.00;;;;;;4998128;28;21028;-83
2022/05/08 11:02:39;;;;;;;8.57;2.17;;;21.40;1.00;;;;;;4999352;28;20487;-83
2022/05/08 11:05:07;;;;;;;9.93;1.97;;;22.10;1.00;;;;;;4996022;28;20460;-83
2022/05/08 11:07:33;;;;;;;6.73;2.10;;;22.00;1.00;;;;;;4995589;28;20997;-83
2022/05/08 11:10:01;;;;;;;7.77;1.90;;;21.60;1.00;;;;;;4994968;28;20462;-83
2022/05/08 11:12:29;;;;;;;8.23;1.60;;;22.40;1.00;;;;;;4995702;28;20458;-83
2022/05/08 11:15:08;;;;;;;8.63;2.57;;;22.00;1.00;;;;;;4995848;28;20556;-84
2022/05/08 11:17:34;;;;;;;7.00;1.60;;;22.30;1.00;;;;;;4996484;28;20569;-83
2022/05/08 11:20:01;;;;;;;7.83;2.60;;;22.40;1.00;;;;;;4995089;28;20504;-83
2022/05/08 11:22:28;;;;;;;5.60;1.97;;;22.50;1.00;;;;;;4995554;28;20458;-83
2022/05/08 11:25:14;;;;;;;5.90;1.93;;;21.70;1.00;;;;;;4996169;28;20468;-83
2022/05/08 11:27:41;;;;;;;5.77;1.70;;;21.20;1.00;;;;;;4995472;28;20469;-83
2022/05/08 11:30:09;;;;;;;4.40;1.40;;;22.10;1.00;;;;;;4995354;28;20452;-83
2022/05/08 11:38:22;;;;;;;10.53;2.50;;;21.10;1.00;;;;;;5043170;23;20500;-83
2022/05/08 11:40:59;;;;;;;8.50;1.80;;;21.40;1.00;;;;;;5025119;28;20484;-85
2022/05/08 11:43:48;;;;;;;6.33;1.80;;;21.40;1.00;;;;;;5024470;28;20445;-83
2022/05/08 11:46:17;;;;;;;7.40;1.47;;;22.60;1.00;;;;;;5025419;28;20460;-83
2022/05/08 11:49:35;;;;;;;6.17;1.57;;;22.80;1.00;;;;;;5025779;28;20453;-84
2022/05/08 11:52:04;;;;;;;5.93;1.73;;;22.40;1.00;;;;;;4964247;29;20479;-83
2022/05/08 11:54:44;;;;;;;9.93;2.27;;;23.10;1.00;;;;;;4979189;28;20468;-83
2022/05/08 11:57:29;;;;;;;7.00;1.40;;;23.60;1.00;;;;;;5025266;28;20472;-83
2022/05/08 12:00:08;;;;;;;7.23;1.60;;;23.20;1.00;;;;;;5025187;28;20437;-84
2022/05/08 12:02:56;;;;;;;7.80;1.67;;;22.20;1.00;;;;;;5025461;28;20949;-83
2022/05/08 12:05:25;;;;;;;8.33;2.07;;;22.60;1.00;;;;;;5024893;28;20485;-83
2022/05/08 12:08:14;;;;;;;7.70;2.27;;;22.90;1.00;;;;;;5024944;28;20479;-83
2022/05/08 12:10:45;;;;;;;6.77;1.90;;;23.50;1.00;;;;;;5024902;28;20472;-86
2022/05/08 12:13:13;;;;;;;9.93;2.00;;;22.60;1.00;;;;;;5024055;28;20520;-83
2022/05/08 12:15:42;;;;;;;6.27;1.80;;;23.30;1.00;;;;;;5023441;28;20480;-83
2022/05/08 12:18:20;;;;;;;6.40;1.90;;;23.40;1.00;;;;;;5024047;28;20556;-89
2022/05/08 12:21:03;;;;;;;5.40;1.93;;;23.30;1.00;;;;;;5025259;28;20480;-86
2022/05/08 12:23:30;;;;;;;7.30;1.80;;;23.80;1.00;;;;;;5022441;28;20492;-83
2022/05/08 12:26:07;;;;;;;4.73;1.37;;;24.10;1.00;;;;;;5024314;28;20460;-83
2022/05/08 12:28:49;;;;;;;8.17;1.63;;;23.80;1.00;;;;;;5016293;28;20508;-87
2022/05/08 12:31:15;;;;;;;5.33;1.57;;;23.10;1.00;;;;;;5016558;28;20476;-86
2022/05/08 12:33:44;;;;;;;7.50;1.90;;;23.20;1.00;;;;;;5016843;28;20468;-85
2022/05/08 12:36:11;;;;;;;5.37;1.60;;;24.00;1.00;;;;;;5017207;28;20452;-87
2022/05/08 12:38:38;;;;;;;4.60;1.30;;;24.50;1.00;;;;;;5015473;28;20460;-87
2022/05/08 12:41:05;;;;;;;6.87;1.87;;;23.30;1.00;;;;;;5016177;28;20453;-87
2022/05/08 12:43:31;;;;;;;5.00;1.50;;;23.80;1.00;;;;;;5016342;28;20512;-87
2022/05/08 12:46:00;;;;;;;4.57;1.50;;;23.40;1.00;;;;;;5015933;28;20453;-87
2022/05/08 12:48:27;;;;;;;5.40;1.40;;;22.80;1.00;;;;;;5015464;28;20469;-88
2022/05/08 12:50:53;;;;;;;7.70;1.70;;;22.90;1.00;;;;;;5016420;28;20507;-87
2022/05/08 12:53:20;;;;;;;5.93;1.53;;;23.20;1.00;;;;;;5016154;28;20831;-87
2022/05/08 12:55:47;;;;;;;5.57;1.27;;;24.10;1.00;;;;;;5015550;28;20448;-87
2022/05/08 13:01:08;;;;;;;7.30;1.73;;;23.20;1.00;;;;;;4992222;28;20437;-88
2022/05/08 13:03:35;;;;;;;7.43;1.87;;;23.10;1.00;;;;;;5016080;28;20449;-87
2022/05/08 13:06:02;;;;;;;4.77;1.27;;;23.90;1.00;;;;;;5015923;28;20494;-88
2022/05/08 13:08:29;;;;;;;7.13;1.70;;;23.50;1.00;;;;;;5014940;28;20500;-88
2022/05/08 13:10:56;;;;;;;6.23;1.47;;;23.00;1.00;;;;;;5014776;28;20485;-87
2022/05/08 13:13:22;;;;;;;4.50;1.30;;;22.60;1.00;;;;;;5014933;28;20492;-88
2022/05/08 13:15:49;;;;;;;4.00;1.30;;;22.90;1.00;;;;;;5015413;28;20457;-87
2022/05/08 13:18:17;;;;;;;6.97;1.20;;;23.00;1.00;;;;;;5014999;28;21044;-87
2022/05/08 13:20:44;;;;;;;4.33;1.20;;;23.50;1.00;;;;;;5015702;28;20453;-84
2022/05/08 13:23:11;;;;;;;5.93;1.47;;;24.10;1.00;;;;;;5014590;28;20457;-84
2022/05/08 13:25:38;;;;;;;5.57;1.40;;;24.90;1.00;;;;;;5014784;28;20527;-85
2022/05/08 13:28:05;;;;;;;4.20;1.20;;;24.50;1.00;;;;;;5014045;28;20476;-85
2022/05/08 13:30:32;;;;;;;5.53;1.03;;;24.10;1.00;;;;;;5014591;28;20575;-85
2022/05/08 13:32:58;;;;;;;4.83;1.27;;;24.90;1.00;;;;;;5014723;28;20459;-85
2022/05/08 13:35:27;;;;;;;5.50;1.00;;;24.30;1.00;;;;;;5014769;28;20544;-85
2022/05/08 13:37:54;;;;;;;5.37;1.63;;;24.70;1.00;;;;;;5014392;28;20481;-85
2022/05/08 13:40:23;;;;;;;4.23;1.10;;;25.10;1.00;;;;;;5014759;28;20516;-85
2022/05/08 13:42:50;;;;;;;5.13;1.50;;;25.00;1.00;;;;;;5014501;28;20871;-85
2022/05/08 13:45:17;;;;;;;4.73;1.10;;;25.20;1.00;;;;;;5014613;28;20452;-84
2022/05/08 13:47:44;;;;;;;5.40;1.13;;;25.10;1.00;;;;;;5014909;28;20488;-85
2022/05/08 13:50:10;;;;;;;7.00;1.60;;;25.30;1.00;;;;;;5013178;28;20483;-85
2022/05/08 13:52:38;;;;;;;7.87;1.80;;;25.40;1.00;;;;;;5014308;28;20484;-85
2022/05/08 13:55:11;;;;;;;4.43;1.20;;;26.30;1.00;;;;;;5014781;28;20456;-85
2022/05/08 13:57:37;;;;;;;4.80;1.17;;;25.40;1.00;;;;;;5013524;28;20512;-85
2022/05/08 14:00:06;;;;;;;6.70;1.20;;;24.50;1.00;;;;;;5014457;28;20453;-85
2022/05/08 14:02:32;;;;;;;4.80;1.27;;;24.30;1.00;;;;;;5014338;28;20449;-85
2022/05/08 14:04:59;;;;;;;5.13;0.80;;;24.20;1.00;;;;;;5013757;28;20457;-85